Latest Weather Observations for Broken Hill Airport

IDN60801

Issued at 1:02 pm EDT Friday 24 March 2017 (issued every 30 minutes, with the page automatically refreshed every 10 minutes)

About weather observations | Map of weather stations | Latest weather observations for NSW | Other Formats
Station Details ID: 047048 Name: BROKEN HILL AIRPORT AWS Lat: -32.00 Lon: 141.47 Height: 281.3 m
Data from the previous 72 hours. | See also: Recent months at Broken Hill Airport
Date/Time
EDT
Temp
°C
App
Temp
°C
Dew
Point
°C
Rel
Hum
%
Delta-T
°C
Wind Press
QNH
hPa
Press
MSL
hPa
Rain since
9am
mm
Dir  Spd
km/h
Gust
km/h
Spd
kts
Gust
kts
24/01:00pm 31.0 29.6 13.3 34 10.7 E 13 20 7 11 1013.8 1012.6 0.0
24/12:30pm 30.8 29.2 14.0 36 10.3 ESE 15 24 8 13 1014.1 1012.9 0.0
24/12:00pm 29.8 29.7 16.9 45 8.2 SE 13 19 7 10 1014.6 1013.5 0.0
24/11:30am 29.2 28.9 17.4 49 7.5 E 15 20 8 11 1014.7 1013.6 0.0
24/11:00am 27.7 26.8 16.9 51 6.8 E 17 20 9 11 1014.8 1013.7 0.0
24/10:30am 27.3 28.1 17.2 54 6.4 ESE 9 15 5 8 1014.9 1013.8 0.0
24/10:00am 25.6 25.6 17.3 60 5.2 E 13 15 7 8 1014.8 1013.7 0.0
24/09:30am 24.4 24.5 16.6 61 4.8 ESE 11 15 6 8 1014.9 1013.8 0.0
24/09:00am 24.2 23.2 16.7 63 4.7 ESE 17 20 9 11 1014.7 1013.6 0.0
24/08:30am 22.8 22.5 16.4 67 3.9 ESE 13 19 7 10 1014.6 1013.5 0.0
24/08:00am 21.4 22.0 15.7 70 3.4 ENE 7 13 4 7 1014.3 1013.1 0.0
24/07:30am 20.7 22.2 14.6 68 3.6 CALM 0 4 0 2 1014.3 1013.1 0.0
24/07:00am 21.2 21.6 14.8 67 3.8 SSE 6 9 3 5 1014.3 1013.1 0.0
24/06:30am 20.8 20.7 14.0 65 4.0 SSW 7 9 4 5 1014.2 1013.0 0.0
24/06:00am 21.0 21.1 13.9 64 4.2 S 6 6 3 3 1013.9 1012.7 0.0
24/05:30am 21.4 21.5 13.8 62 4.5 SSE 6 7 3 4 1013.9 1012.7 0.0
24/05:00am 21.5 21.0 13.7 61 4.6 SSE 9 13 5 7 1013.8 1012.6 0.0
24/04:30am 22.3 21.1 13.9 59 5.0 SSE 13 17 7 9 1014.0 1012.8 0.0
24/04:00am 22.5 22.5 14.1 59 5.0 S 7 11 4 6 1014.1 1012.9 0.0
24/03:30am 22.5 23.0 14.1 59 5.0 SW 4 9 2 5 1014.1 1012.9 0.0
24/03:00am 22.5 22.4 13.8 58 5.1 W 7 9 4 5 1014.3 1013.1 0.0
24/02:30am 23.0 22.5 13.8 56 5.4 S 9 15 5 8 1014.3 1013.1 0.0
24/02:00am 23.3 22.3 13.5 54 5.8 SSE 11 15 6 8 1014.4 1013.2 0.0
24/01:30am 23.8 21.6 13.4 52 6.1 SSE 17 20 9 11 1014.6 1013.5 0.0
24/01:00am 24.2 21.7 13.4 51 6.4 S 19 24 10 13 1014.6 1013.5 0.0
24/12:30am 24.6 22.0 13.2 49 6.7 S 19 22 10 12 1014.8 1013.7 0.0
24/12:00am 25.3 23.1 13.2 47 7.1 S 17 20 9 11 1014.9 1013.8 0.0
 
Date/Time
EDT
Temp
°C
App
Temp
°C
Dew
Point
°C
Rel
Hum
%
Delta-T
°C
Wind Press
QNH
hPa
Press
MSL
hPa
Rain since
9am
mm
Dir  Spd
km/h
Gust
km/h
Spd
kts
Gust
kts
23/11:30pm 25.8 23.6 13.3 46 7.4 S 17 20 9 11 1014.8 1013.7 0.0
23/11:00pm 26.4 23.8 13.2 44 7.8 SSE 19 24 10 13 1014.7 1013.6 0.0
23/10:30pm 26.7 24.1 13.1 43 8.1 S 19 22 10 12 1014.8 1013.7 0.0
23/10:00pm 27.2 24.6 13.2 42 8.3 S 19 22 10 12 1014.7 1013.6 0.0
23/09:30pm 27.7 25.0 12.9 40 8.8 S 19 22 10 12 1014.5 1013.3 0.0
23/09:00pm 28.1 25.3 12.5 38 9.2 S 19 24 10 13 1014.0 1012.8 0.0
23/08:30pm 28.6 25.6 12.5 37 9.5 S 20 24 11 13 1013.6 1012.4 0.0
23/08:00pm 29.2 26.8 12.6 36 9.9 S 17 20 9 11 1013.4 1012.2 0.0
23/07:30pm 29.7 26.9 12.6 35 10.2 SSE 19 28 10 15 1013.2 1012.0 0.0
23/07:00pm 30.6 28.2 12.5 33 10.8 S 17 26 9 14 1012.8 1011.6 0.0
23/06:30pm 31.3 28.3 12.6 31 11.2 SE 20 26 11 14 1012.7 1011.5 0.0
23/06:00pm 31.5 28.6 12.8 32 11.3 SE 20 32 11 17 1012.6 1011.4 0.0
23/05:30pm 30.7 28.4 13.0 33 10.6 S 17 24 9 13 1012.5 1011.3 0.0
23/05:00pm 30.9 28.1 13.2 34 10.7 SE 20 33 11 18 1012.6 1011.4 0.0
23/04:30pm 31.4 29.5 14.1 35 10.6 SSE 17 32 9 17 1012.8 1011.6 0.0
23/04:00pm 30.6 27.9 13.4 35 10.4 SSE 20 35 11 19 1013.2 1012.0 0.0
23/03:30pm 31.0 28.7 14.6 37 10.1 SSE 20 35 11 19 1013.4 1012.2 0.0
23/03:00pm 30.6 27.6 14.7 38 9.8 SSE 24 43 13 23 1013.5 1012.3 0.0
23/02:30pm 29.9 26.5 14.8 39 9.3 S 26 35 14 19 1013.7 1012.5 0.0
23/02:00pm 29.7 27.2 16.1 43 8.5 SSE 24 39 13 21 1014.2 1013.0 0.0
23/01:30pm 28.8 25.7 15.7 45 8.2 S 26 37 14 20 1014.7 1013.6 0.0
23/01:00pm 28.4 25.8 16.0 47 7.7 S 24 35 13 19 1015.1 1014.0 0.0
23/12:30pm 27.5 25.0 16.1 49 7.1 SSW 24 32 13 17 1015.3 1014.2 0.0
23/12:00pm 25.4 23.4 15.4 54 6.1 S 20 28 11 15 1015.9 1014.7 0.0
23/11:30am 24.5 22.6 15.1 55 5.7 S 19 26 10 14 1015.9 1014.7 0.0
23/11:00am 23.1 20.8 14.7 59 5.0 S 20 28 11 15 1015.8 1014.6 0.0
23/10:30am 22.1 19.9 14.5 62 4.5 S 19 24 10 13 1015.9 1014.7 0.0
23/10:00am 21.0 18.2 14.2 65 4.0 S 22 28 12 15 1015.8 1014.6 0.0
23/09:30am 20.0 17.1 13.9 68 3.6 S 22 26 12 14 1015.9 1014.7 0.0
23/09:00am 19.2 15.8 13.6 70 3.2 S 24 30 13 16 1015.7 1014.5 0.0
23/08:30am 18.7 15.7 13.6 72 2.9 S 22 28 12 15 1015.5 1014.3 0.0
23/08:00am 18.0 15.8 13.3 74 2.7 SSW 17 22 9 12 1015.1 1014.0 0.0
23/07:30am 18.1 15.3 13.2 73 2.8 SSW 20 26 11 14 1014.7 1013.6 0.0
23/07:00am 18.4 14.8 13.1 71 3.0 SSW 24 28 13 15 1014.2 1013.0 0.0
23/06:30am 18.8 15.6 13.2 70 3.2 S 22 28 12 15 1013.9 1012.7 0.0
23/06:00am 19.1 15.6 13.3 69 3.3 S 24 30 13 16 1013.7 1012.5 0.0
23/05:30am 19.4 16.2 13.1 67 3.6 S 22 28 12 15 1013.6 1012.4 0.0
23/05:00am 19.8 17.0 13.3 66 3.7 S 20 26 11 14 1013.5 1012.3 0.0
23/04:30am 20.0 17.3 13.0 64 4.0 S 19 20 10 11 1013.7 1012.5 0.0
23/04:00am 20.5 17.9 13.2 63 4.2 S 19 22 10 12 1013.6 1012.4 0.0
23/03:30am 21.1 18.0 13.5 62 4.4 S 22 26 12 14 1013.6 1012.4 0.0
23/03:00am 21.5 18.0 13.4 60 4.7 S 24 30 13 16 1013.6 1012.4 0.0
23/02:30am 21.9 19.2 13.5 59 4.9 S 20 32 11 17 1014.0 1012.8 0.0
23/02:00am 22.4 19.3 13.5 57 5.2 S 22 28 12 15 1014.1 1012.9 0.0
23/01:30am 22.7 20.1 13.7 56 5.3 S 20 26 11 14 1014.4 1013.2 0.0
23/01:00am 23.1 20.5 13.8 55 5.5 S 20 26 11 14 1014.4 1013.2 0.0
23/12:30am 23.5 20.3 14.2 56 5.5 S 24 30 13 16 1014.6 1013.5 0.0
23/12:00am 23.8 20.6 14.2 55 5.7 S 24 32 13 17 1014.7 1013.6 0.0
 
Date/Time
EDT
Temp
°C
App
Temp
°C
Dew
Point
°C
Rel
Hum
%
Delta-T
°C
Wind Press
QNH
hPa
Press
MSL
hPa
Rain since
9am
mm
Dir  Spd
km/h
Gust
km/h
Spd
kts
Gust
kts
22/11:30pm 24.1 20.6 14.5 55 5.8 S 26 33 14 18 1014.8 1013.7 0.0
22/11:00pm 24.6 19.9 14.4 53 6.1 S 32 41 17 22 1014.7 1013.6 0.0
22/10:30pm 25.1 21.2 14.3 51 6.5 S 28 35 15 19 1014.4 1013.2 0.0
22/10:00pm 25.5 21.6 14.3 50 6.7 S 28 35 15 19 1014.1 1012.9 0.0
22/09:30pm 25.9 22.5 14.7 50 6.8 S 26 35 14 19 1013.6 1012.4 0.0
22/09:00pm 26.4 22.3 14.8 49 7.1 S 30 37 16 20 1013.0 1011.8 0.0
22/08:30pm 26.8 22.8 15.2 49 7.1 S 30 39 16 21 1012.5 1011.3 0.0
22/08:00pm 27.3 23.3 15.3 48 7.4 S 30 35 16 19 1012.0 1010.8 0.0
22/07:30pm 27.8 24.3 15.5 47 7.6 S 28 35 15 19 1011.6 1010.5 0.0
22/07:00pm 28.3 25.1 15.2 44 8.1 S 26 33 14 18 1011.5 1010.4 0.0
22/06:30pm 28.9 25.4 15.4 44 8.4 SSW 28 35 15 19 1011.4 1010.3 0.0
22/06:00pm 29.5 26.8 15.6 43 8.7 S 24 39 13 21 1011.1 1009.9 0.0
22/05:30pm 29.2 26.0 15.3 42 8.6 S 26 39 14 21 1011.1 1009.9 0.0
22/05:00pm 28.9 25.2 15.1 43 8.5 SSW 28 39 15 21 1011.2 1010.0 0.0
22/04:30pm 28.9 25.7 15.4 44 8.4 SSW 26 37 14 20 1011.5 1010.4 0.0
22/04:00pm 28.4 25.7 15.7 46 7.9 SSW 24 37 13 20 1011.8 1010.6 0.0
22/03:30pm 28.0 24.5 15.6 46 7.7 SSW 28 37 15 20 1012.0 1010.8 0.0
22/03:00pm 27.8 24.9 16.1 49 7.3 SW 26 39 14 21 1012.2 1011.0 0.0
22/02:30pm 27.0 24.4 16.0 51 6.8 SSW 24 32 13 17 1012.3 1011.1 0.0
22/02:00pm 26.7 23.4 16.0 52 6.6 SSW 28 39 15 21 1012.7 1011.5 0.0
22/01:30pm 26.9 23.9 16.8 54 6.3 SSW 28 37 15 20 1012.9 1011.7 0.0
22/01:00pm 26.8 24.3 17.0 55 6.2 SSW 26 35 14 19 1013.3 1012.1 0.0
22/12:30pm 25.9 22.9 16.7 57 5.8 SSW 28 35 15 19 1013.6 1012.4 0.0
22/12:00pm 24.9 22.6 16.6 60 5.2 SSW 24 33 13 18 1013.8 1012.6 0.0
22/11:30am 24.6 22.0 16.8 62 4.9 S 26 35 14 19 1013.9 1012.7 0.0
22/11:00am 24.4 21.9 17.1 63 4.6 SSW 26 32 14 17 1013.8 1012.6 0.0
22/10:30am 23.9 20.9 16.9 65 4.4 SSW 28 37 15 20 1013.7 1012.5 0.0
22/10:00am 23.3 20.3 16.8 67 4.0 SSW 28 35 15 19 1013.6 1012.4 0.0
22/09:30am 22.7 19.9 17.2 71 3.4 SSW 28 33 15 18 1013.5 1012.3 0.0
22/09:08am 22.2 18.9 16.9 72 3.3 SSW 30 35 16 19 1013.3 1012.1 0.0
22/09:00am 21.9 19.3 16.8 73 3.1 SSW 26 32 14 17 1013.3 1012.1 0.0
22/08:45am 21.6 19.0 16.8 74 3.0 SSW 26 33 14 18 1012.9 1011.7 0.0
22/08:30am 21.3 19.4 16.7 75 2.8 SW 22 32 12 17 1012.9 1011.7 0.0
22/08:00am 20.7 19.0 16.3 76 2.7 SW 20 26 11 14 1012.2 1011.0 0.0
22/07:30am 20.4 19.6 15.0 71 3.2 SSW 13 17 7 9 1011.8 1010.6 0.0
22/07:00am 20.9 20.0 14.8 68 3.6 SSW 13 17 7 9 1011.2 1010.0 0.0
22/06:30am 21.0 19.9 14.2 65 4.0 SW 13 17 7 9 1010.8 1009.6 0.0
22/06:00am 21.2 19.7 13.1 60 4.7 SW 13 15 7 8 1010.7 1009.5 0.0
22/05:30am 21.2 19.8 12.3 57 5.1 W 11 13 6 7 1010.5 1009.3 0.0
22/05:00am 21.7 20.1 11.7 53 5.7 WSW 11 15 6 8 1010.3 1009.1 0.0
22/04:30am 22.4 20.8 11.5 50 6.2 WSW 11 13 6 7 1010.3 1009.1 0.0
22/04:00am 23.5 21.7 12.2 49 6.5 WSW 13 19 7 10 1010.3 1009.1 0.0
22/03:30am 24.5 21.2 12.8 48 6.8 SW 22 28 12 15 1010.2 1009.0 0.0
22/03:00am 25.6 23.4 14.4 50 6.8 SW 19 22 10 12 1010.2 1009.0 0.0
22/02:30am 26.3 23.9 14.4 48 7.2 SW 20 24 11 13 1010.3 1009.1 0.0
22/02:00am 27.0 24.2 14.4 46 7.6 SW 22 30 12 16 1010.5 1009.3 0.0
22/01:30am 26.8 24.1 11.7 39 8.8 SW 17 20 9 11 1010.4 1009.2 0.0
22/01:00am 27.5 24.3 8.4 30 10.5 WSW 15 19 8 10 1010.5 1009.3 0.0
22/12:30am 28.2 24.7 7.4 27 11.3 W 15 19 8 10 1010.5 1009.3 0.0
22/12:00am 29.0 25.6 7.6 26 11.7 WNW 15 17 8 9 1010.5 1009.3 0.0
 
Date/Time
EDT
Temp
°C
App
Temp
°C
Dew
Point
°C
Rel
Hum
%
Delta-T
°C
Wind Press
QNH
hPa
Press
MSL
hPa
Rain since
9am
mm
Dir  Spd
km/h
Gust
km/h
Spd
kts
Gust
kts
21/11:30pm 28.9 26.0 8.0 27 11.5 WNW 13 17 7 9 1010.4 1009.2 0.0
21/11:00pm 29.7 26.9 7.0 24 12.4 NW 11 24 6 13 1010.2 1009.0 0.0
21/10:30pm 31.2 28.6 7.6 23 13.1 NNW 11 13 6 7 1009.9 1008.7 0.0
21/10:00pm 31.1 29.0 8.2 24 12.8 NNW 9 11 5 6 1009.7 1008.5 0.0
21/09:30pm 31.1 28.8 7.5 23 13.1 N 9 11 5 6 1009.4 1008.2 0.0
21/09:00pm 31.6 29.3 7.3 22 13.4 NNW 9 11 5 6 1009.0 1007.8 0.0
21/08:30pm 32.0 29.7 7.6 22 13.6 NNW 9 13 5 7 1008.8 1007.6 0.0
21/08:00pm 32.6 29.9 7.4 21 14.0 NW 11 13 6 7 1008.5 1007.3 0.0
21/07:30pm 34.0 30.7 7.9 20 14.7 WNW 15 24 8 13 1008.3 1007.0 0.0
21/07:00pm 35.1 31.2 8.8 20 15.1 WNW 19 26 10 14 1008.2 1006.9 0.0
21/06:30pm 35.3 31.3 8.9 20 15.2 WNW 20 28 11 15 1008.2 1006.9 0.0
21/06:00pm 35.7 32.0 10.0 21 15.1 WNW 20 28 11 15 1008.2 1006.9 0.0
21/05:30pm 35.5 31.7 9.8 21 15.0 WNW 20 35 11 19 1008.4 1007.2 0.0
21/05:00pm 35.3 31.9 10.4 22 14.7 NW 19 28 10 15 1008.6 1007.4 0.0
21/04:30pm 35.7 33.1 10.7 22 14.8 NNW 15 24 8 13 1009.0 1007.8 0.0
21/04:00pm 35.6 32.2 11.3 23 14.5 NW 20 35 11 19 1009.2 1008.0 0.0
21/03:30pm 34.6 31.9 11.7 25 13.7 NNW 17 30 9 16 1009.5 1008.3 0.0
21/03:00pm 35.2 32.7 12.2 25 13.9 NW 17 32 9 17 1009.8 1008.6 0.0
21/02:30pm 34.7 32.4 11.8 25 13.7 W 15 26 8 14 1010.2 1009.0 0.0
21/02:00pm 33.4 30.5 12.4 28 12.7 NW 19 28 10 15 1010.5 1009.3 0.0

Other Formats:

Comma delimited format used in spreadsheet applications
http://www.bom.gov.au/fwo/IDN60801/IDN60801.94691.axf

JavaScript Object Notation format (JSON) in row-major order
http://www.bom.gov.au/fwo/IDN60801/IDN60801.94691.json